Time;durP1;ratioP1;P1;durP2;ratioP2;P2;SDS_P1;SDS_P2;PMS_P1;PMS_P2;Temp;Humidity;BMP_temperature;BMP_pressure;BME280_temperature;BME280_humidity;BME280_pressure;Samples;Min_cycle;Max_cycle;Signal;HPM_P1;HPM_P2
2023/01/28 00:00:31;;;;;;;9.23;4.53;;;2.40;99.90;;;;;;5134244;27;20054;-77
2023/01/28 00:02:56;;;;;;;10.50;4.43;;;2.60;99.90;;;;;;5116026;27;20047;-77
2023/01/28 00:05:22;;;;;;;10.18;4.57;;;2.40;99.90;;;;;;5115568;27;20059;-76
2023/01/28 00:07:48;;;;;;;;;;;2.40;99.90;;;;;;5134470;27;20073;-77
2023/01/28 00:10:14;;;;;;;10.85;5.55;;;2.40;99.90;;;;;;5134449;27;19920;-77
2023/01/28 00:12:40;;;;;;;10.65;5.53;;;2.40;99.90;;;;;;5132867;27;20043;-77
2023/01/28 00:15:07;;;;;;;11.57;5.43;;;2.40;99.90;;;;;;5134471;27;20043;-77
2023/01/28 00:17:33;;;;;;;11.85;6.10;;;2.40;99.90;;;;;;5133315;27;20051;-77
2023/01/28 00:19:58;;;;;;;12.57;5.72;;;2.40;99.90;;;;;;5115697;27;20043;-77
2023/01/28 00:22:24;;;;;;;11.50;6.20;;;2.40;99.90;;;;;;5134988;27;20385;-77
2023/01/28 00:24:50;;;;;;;10.93;5.65;;;2.40;99.90;;;;;;5142090;27;20039;-77
2023/01/28 00:27:15;;;;;;;12.30;6.30;;;2.50;99.90;;;;;;5133303;27;20476;-77
2023/01/28 00:29:41;;;;;;;9.55;5.20;;;2.40;99.90;;;;;;5133356;27;20047;-77
2023/01/28 00:32:07;;;;;;;11.55;5.82;;;2.40;99.90;;;;;;5134005;27;20096;-77
2023/01/28 00:34:32;;;;;;;10.75;6.13;;;2.40;99.90;;;;;;5133233;27;20043;-77
2023/01/28 00:36:58;;;;;;;12.63;6.38;;;2.40;99.90;;;;;;5133272;27;20051;-77
2023/01/28 00:39:25;;;;;;;12.57;6.47;;;2.40;99.90;;;;;;5125747;27;20039;-77
2023/01/28 00:41:51;;;;;;;10.52;5.20;;;2.40;99.90;;;;;;5135011;27;20321;-77
2023/01/28 00:44:18;;;;;;;13.45;5.38;;;2.30;99.90;;;;;;5154495;27;20046;-77
2023/01/28 00:46:44;;;;;;;12.25;6.07;;;3.20;99.90;;;;;;5146732;27;20050;-77
2023/01/28 00:49:10;;;;;;;13.45;6.45;;;2.70;99.90;;;;;;5133029;27;20039;-77
2023/01/28 00:51:35;;;;;;;11.98;6.20;;;2.30;99.90;;;;;;5152865;27;20130;-77
2023/01/28 00:54:01;;;;;;;10.95;5.78;;;2.40;99.90;;;;;;5142024;27;20051;-77
2023/01/28 00:56:27;;;;;;;10.82;5.90;;;2.30;99.90;;;;;;5149456;27;20054;-77
2023/01/28 00:58:53;;;;;;;12.88;6.53;;;2.30;99.90;;;;;;5146091;27;20042;-77
2023/01/28 01:01:25;;;;;;;11.18;5.97;;;2.30;99.90;;;;;;5146914;27;20480;-77
2023/01/28 01:03:56;;;;;;;11.05;5.95;;;2.40;99.90;;;;;;5139542;27;20584;-77
2023/01/28 01:06:23;;;;;;;11.13;5.60;;;2.20;99.90;;;;;;5152747;27;20516;-77
2023/01/28 01:08:50;;;;;;;10.55;5.50;;;2.20;99.90;;;;;;5153380;27;20412;-77
2023/01/28 01:11:16;;;;;;;10.48;5.15;;;2.20;99.90;;;;;;5153960;27;20047;-77
2023/01/28 01:13:42;;;;;;;10.02;5.25;;;2.70;99.90;;;;;;5123974;27;20047;-77
2023/01/28 01:16:15;;;;;;;8.80;5.18;;;2.80;99.90;;;;;;5133224;27;20084;-77
2023/01/28 01:18:41;;;;;;;8.95;5.05;;;2.20;99.90;;;;;;5132323;27;20086;-77
2023/01/28 01:21:08;;;;;;;;;;;2.20;99.90;;;;;;5141808;27;20464;-77
2023/01/28 01:23:34;;;;;;;8.07;4.53;;;2.20;99.90;;;;;;5137077;27;20033;-77
2023/01/28 01:25:59;;;;;;;10.23;4.90;;;2.20;99.90;;;;;;5135291;27;20158;-77
2023/01/28 01:28:25;;;;;;;8.23;4.78;;;2.20;99.90;;;;;;5153852;27;20500;-77
2023/01/28 01:31:09;;;;;;;11.27;5.13;;;2.20;99.90;;;;;;5153399;27;20103;-77
2023/01/28 01:33:35;;;;;;;7.28;4.30;;;2.30;99.90;;;;;;5133984;27;20050;-77
2023/01/28 01:36:01;;;;;;;6.32;4.00;;;2.20;99.90;;;;;;5153331;27;20047;-77
2023/01/28 01:38:28;;;;;;;6.57;3.95;;;2.10;99.90;;;;;;5135858;27;20035;-77
2023/01/28 01:41:00;;;;;;;9.63;4.30;;;2.10;99.90;;;;;;5132424;27;20047;-77
2023/01/28 01:43:47;;;;;;;6.80;4.15;;;2.10;99.90;;;;;;5133007;27;20100;-77
2023/01/28 01:46:14;;;;;;;8.38;4.05;;;2.10;99.90;;;;;;5132909;27;20396;-77
2023/01/28 01:48:40;;;;;;;6.30;4.03;;;2.50;99.90;;;;;;5131574;27;20104;-77
2023/01/28 01:51:18;;;;;;;6.55;3.70;;;2.10;99.90;;;;;;5132706;27;20039;-77
2023/01/28 01:53:48;;;;;;;5.90;3.83;;;2.10;99.90;;;;;;5139344;27;20080;-77
2023/01/28 01:56:18;;;;;;;6.38;3.47;;;2.10;99.90;;;;;;5153388;27;20039;-77
2023/01/28 01:58:48;;;;;;;6.57;4.00;;;2.00;99.90;;;;;;5150566;27;20054;-77
2023/01/28 02:01:14;;;;;;;5.75;3.28;;;2.00;99.90;;;;;;5124505;27;20055;-77
2023/01/28 02:04:16;;;;;;;5.78;3.70;;;2.60;99.90;;;;;;5131219;27;20062;-77
2023/01/28 02:06:42;;;;;;;5.75;3.53;;;2.00;99.90;;;;;;5131180;27;20145;-77
2023/01/28 02:09:22;;;;;;;6.22;3.53;;;2.50;99.90;;;;;;5120113;27;20080;-77
2023/01/28 02:11:48;;;;;;;6.93;4.05;;;2.00;99.90;;;;;;5134112;27;20503;-77
2023/01/28 02:14:13;;;;;;;;;;;2.00;99.90;;;;;;5153468;27;20043;-77
2023/01/28 02:16:39;;;;;;;7.15;4.55;;;2.00;99.90;;;;;;5152390;27;19925;-77
2023/01/28 02:19:06;;;;;;;6.95;4.40;;;2.00;99.90;;;;;;5152274;27;20042;-77
2023/01/28 02:21:55;;;;;;;8.60;4.63;;;2.00;99.90;;;;;;5152927;27;20050;-77
2023/01/28 02:24:51;;;;;;;8.05;5.15;;;2.00;99.90;;;;;;5145335;27;20141;-77
2023/01/28 02:27:49;;;;;;;7.18;4.40;;;2.00;99.90;;;;;;5117874;27;20107;-77
2023/01/28 02:30:28;;;;;;;7.35;4.28;;;2.10;99.90;;;;;;5098394;27;20051;-77
2023/01/28 02:32:59;;;;;;;6.75;4.13;;;2.00;99.90;;;;;;5139170;27;20118;-77
2023/01/28 02:35:33;;;;;;;8.05;4.57;;;2.10;99.90;;;;;;5152261;27;20043;-77
2023/01/28 02:38:02;;;;;;;7.25;4.20;;;2.00;99.90;;;;;;5150126;27;20050;-77
2023/01/28 02:40:33;;;;;;;8.93;4.28;;;2.00;99.90;;;;;;5152623;27;20046;-77
2023/01/28 02:42:59;;;;;;;6.65;3.85;;;2.00;99.90;;;;;;5133585;27;20495;-77
2023/01/28 02:47:56;;;;;;;6.32;3.60;;;2.10;99.90;;;;;;5150256;27;20043;-77
2023/01/28 02:48:20;;;;;;;6.72;3.47;;;2.00;99.90;;;;;;5151095;27;20050;-77
2023/01/28 02:51:01;;;;;;;6.68;3.45;;;2.00;99.90;;;;;;5151972;27;20039;-77
2023/01/28 02:54:13;;;;;;;6.97;3.85;;;2.00;99.90;;;;;;5150304;27;20103;-77
2023/01/28 02:56:57;;;;;;;7.05;3.45;;;1.90;99.90;;;;;;5147455;27;20051;-77
2023/01/28 02:59:35;;;;;;;10.23;4.32;;;1.90;99.90;;;;;;5152365;27;20043;-77
2023/01/28 03:02:01;;;;;;;7.32;3.38;;;1.90;99.90;;;;;;5151539;27;20046;-77
2023/01/28 03:04:37;;;;;;;6.82;3.53;;;1.90;99.90;;;;;;5152497;27;20067;-77
2023/01/28 03:07:05;;;;;;;8.75;3.80;;;1.90;99.90;;;;;;5151097;27;20058;-77
2023/01/28 03:09:32;;;;;;;6.25;3.67;;;1.90;99.90;;;;;;5134837;27;20716;-77
2023/01/28 03:38:21;;;;;;;6.63;3.50;;;1.80;99.90;;;;;;5129419;28;20054;-77
2023/01/28 03:40:55;;;;;;;7.35;3.83;;;1.80;99.90;;;;;;5130802;28;20047;-77
2023/01/28 03:43:22;;;;;;;7.57;3.55;;;1.80;99.90;;;;;;5131190;28;20047;-77
2023/01/28 03:45:51;;;;;;;6.63;3.53;;;1.80;99.90;;;;;;5130754;28;20058;-77
2023/01/28 03:48:24;;;;;;;7.47;3.40;;;1.70;99.90;;;;;;5130678;28;20047;-77
2023/01/28 03:50:51;;;;;;;7.53;3.83;;;1.70;99.90;;;;;;5130876;28;20134;-77
2023/01/28 03:53:18;;;;;;;7.60;3.95;;;1.70;99.90;;;;;;5132731;27;20047;-77
2023/01/28 03:55:45;;;;;;;7.35;3.83;;;1.70;99.90;;;;;;5130671;27;20058;-77
2023/01/28 03:58:12;;;;;;;7.47;3.67;;;1.80;99.90;;;;;;5140482;27;20476;-77
2023/01/28 04:00:42;;;;;;;7.05;3.63;;;1.70;99.90;;;;;;5134934;27;20046;-77
2023/01/28 04:03:15;;;;;;;6.95;3.67;;;1.70;99.90;;;;;;5115695;27;20051;-77
2023/01/28 04:05:46;;;;;;;8.07;3.80;;;1.70;99.90;;;;;;5134424;27;20525;-76
2023/01/28 04:08:12;;;;;;;7.97;3.88;;;1.70;99.90;;;;;;5137013;27;20042;-77
2023/01/28 04:10:39;;;;;;;8.05;4.13;;;1.70;99.90;;;;;;5137207;27;20502;-77
2023/01/28 04:13:05;;;;;;;9.90;3.95;;;1.70;99.90;;;;;;5154213;27;20035;-77
2023/01/28 04:15:31;;;;;;;;;;;1.70;99.90;;;;;;5155759;27;20130;-77
2023/01/28 04:17:57;;;;;;;9.73;3.80;;;1.70;99.90;;;;;;5142992;27;20040;-77
2023/01/28 04:20:23;;;;;;;7.30;3.80;;;2.10;99.90;;;;;;5155196;27;20046;-77
2023/01/28 04:22:48;;;;;;;8.00;3.92;;;2.40;99.90;;;;;;5151573;27;20505;-77
2023/01/28 04:25:14;;;;;;;8.27;3.97;;;1.70;99.90;;;;;;5134296;27;20083;-77
2023/01/28 04:27:40;;;;;;;6.93;3.83;;;1.80;99.90;;;;;;5116322;27;20075;-77
2023/01/28 04:30:06;;;;;;;8.63;3.80;;;1.80;99.90;;;;;;5134117;27;20050;-77
2023/01/28 04:32:32;;;;;;;7.97;3.53;;;1.80;99.90;;;;;;5133753;27;20130;-77
2023/01/28 04:34:58;;;;;;;7.53;3.92;;;1.80;99.90;;;;;;5145911;27;20589;-77
2023/01/28 04:37:23;;;;;;;7.97;3.78;;;1.80;99.90;;;;;;5153135;27;20878;-77
2023/01/28 04:39:49;;;;;;;15.10;4.05;;;1.80;99.90;;;;;;5154430;27;20046;-77
2023/01/28 04:42:14;;;;;;;9.68;4.15;;;1.80;99.90;;;;;;5154664;27;20090;-77
2023/01/28 04:44:40;;;;;;;8.82;3.90;;;1.80;99.90;;;;;;5136483;27;20047;-77
2023/01/28 04:47:06;;;;;;;7.65;3.75;;;1.70;99.90;;;;;;5151952;27;20053;-77
2023/01/28 04:49:31;;;;;;;8.77;4.32;;;2.00;99.90;;;;;;5154739;27;20497;-77
2023/01/28 04:51:57;;;;;;;7.88;4.30;;;1.90;99.90;;;;;;5149088;27;20043;-77
2023/01/28 04:54:23;;;;;;;8.00;4.00;;;1.70;99.90;;;;;;5146978;27;20108;-77
2023/01/28 04:56:49;;;;;;;8.40;4.32;;;1.70;99.90;;;;;;5153915;27;20042;-77
2023/01/28 04:59:14;;;;;;;10.52;4.28;;;1.80;99.90;;;;;;5154364;27;20138;-77
2023/01/28 05:01:40;;;;;;;9.55;4.30;;;1.80;99.90;;;;;;5136060;27;20051;-77
2023/01/28 05:04:06;;;;;;;10.23;5.15;;;1.70;99.90;;;;;;5135078;27;20043;-77
2023/01/28 05:06:32;;;;;;;;;;;2.10;99.90;;;;;;5154732;27;20058;-77
2023/01/28 05:08:58;;;;;;;7.00;3.70;;;1.70;99.90;;;;;;5144883;27;19930;-77
2023/01/28 05:11:23;;;;;;;9.38;3.97;;;1.70;99.90;;;;;;5152977;27;20569;-77
2023/01/28 05:13:50;;;;;;;9.88;4.35;;;1.70;99.90;;;;;;5153796;27;20042;-77
2023/01/28 05:16:16;;;;;;;9.30;4.55;;;1.70;99.90;;;;;;5154065;27;20118;-77
2023/01/28 05:18:42;;;;;;;8.75;3.83;;;1.70;99.90;;;;;;5153634;27;20387;-77
2023/01/28 05:21:08;;;;;;;;;;;1.70;99.90;;;;;;5135430;27;20106;-77
2023/01/28 05:23:33;;;;;;;9.02;4.57;;;1.80;99.90;;;;;;5133713;27;19922;-77
2023/01/28 05:25:59;;;;;;;10.02;4.30;;;1.70;99.90;;;;;;5153242;27;20050;-77
2023/01/28 05:28:25;;;;;;;7.35;4.20;;;2.20;99.90;;;;;;5135418;27;20207;-77
2023/01/28 05:30:50;;;;;;;9.18;4.10;;;1.70;99.90;;;;;;5153296;27;20043;-77
2023/01/28 05:33:16;;;;;;;8.13;4.15;;;1.70;99.90;;;;;;5152223;27;20391;-77
2023/01/28 05:35:42;;;;;;;9.27;4.07;;;1.70;99.90;;;;;;5135681;27;20055;-77
2023/01/28 05:38:08;;;;;;;7.30;3.50;;;1.70;99.90;;;;;;5130156;27;20043;-77
2023/01/28 05:40:34;;;;;;;10.55;4.18;;;1.70;99.90;;;;;;5132734;27;20043;-77
2023/01/28 05:43:00;;;;;;;8.90;3.92;;;1.70;99.90;;;;;;5131848;27;20049;-77
2023/01/28 05:45:25;;;;;;;9.68;4.22;;;1.70;99.90;;;;;;5133086;27;20043;-77
2023/01/28 05:47:51;;;;;;;9.73;3.80;;;1.70;99.90;;;;;;5131975;27;20511;-77
2023/01/28 05:50:17;;;;;;;8.32;4.40;;;1.80;99.90;;;;;;5132970;27;20388;-77
2023/01/28 05:52:43;;;;;;;10.07;4.00;;;1.60;99.90;;;;;;5130455;27;20047;-77
2023/01/28 05:55:09;;;;;;;9.35;3.60;;;1.60;99.90;;;;;;5134654;27;20047;-77
2023/01/28 05:57:35;;;;;;;8.40;3.20;;;1.60;99.90;;;;;;5132118;27;20515;-77
2023/01/28 06:00:04;;;;;;;9.57;3.83;;;1.60;99.90;;;;;;5131893;27;20168;-77
2023/01/28 06:02:30;;;;;;;7.55;3.63;;;1.60;99.90;;;;;;5113693;27;20081;-77
2023/01/28 06:04:55;;;;;;;7.32;3.88;;;1.70;99.90;;;;;;5131914;27;20083;-76
2023/01/28 06:07:22;;;;;;;8.32;3.67;;;1.90;99.90;;;;;;5130665;27;20138;-77
2023/01/28 06:09:48;;;;;;;7.97;3.88;;;1.70;99.90;;;;;;5135742;27;20082;-77
2023/01/28 06:12:14;;;;;;;7.70;3.70;;;1.70;99.90;;;;;;5151551;27;20078;-77
2023/01/28 06:14:40;;;;;;;6.60;3.40;;;1.70;99.90;;;;;;5134496;27;20095;-77
2023/01/28 06:17:06;;;;;;;8.25;3.80;;;1.70;99.90;;;;;;5149747;27;20579;-77
2023/01/28 06:19:32;;;;;;;8.35;3.97;;;1.70;99.90;;;;;;5151892;27;20499;-77
2023/01/28 06:21:58;;;;;;;11.45;3.97;;;1.70;99.90;;;;;;5142369;27;20039;-77
2023/01/28 06:24:23;;;;;;;10.80;3.85;;;1.70;99.90;;;;;;5130789;27;20065;-77
2023/01/28 06:26:49;;;;;;;8.90;4.00;;;1.70;99.90;;;;;;5141676;27;20129;-77
2023/01/28 06:29:15;;;;;;;8.23;4.53;;;1.70;99.90;;;;;;5147535;27;20115;-77
2023/01/28 06:31:40;;;;;;;8.63;4.70;;;1.70;99.90;;;;;;5152447;27;20126;-77
2023/01/28 06:34:07;;;;;;;8.70;4.10;;;1.70;99.90;;;;;;5151698;27;20039;-77
2023/01/28 06:36:34;;;;;;;10.23;4.75;;;2.10;99.90;;;;;;5132195;27;20055;-77
2023/01/28 06:39:00;;;;;;;10.05;4.60;;;1.90;99.90;;;;;;5138937;27;20054;-77
2023/01/28 06:41:25;;;;;;;8.10;3.78;;;1.70;99.90;;;;;;5131935;27;20055;-77
2023/01/28 06:43:51;;;;;;;8.85;4.10;;;2.10;99.90;;;;;;5131691;27;20051;-77
2023/01/28 06:46:17;;;;;;;9.55;4.10;;;1.70;99.90;;;;;;5131328;27;20047;-77
2023/01/28 06:48:43;;;;;;;10.55;4.50;;;1.70;99.90;;;;;;5133447;27;20078;-77
2023/01/28 06:51:08;;;;;;;11.02;4.90;;;2.00;99.90;;;;;;5147483;27;20054;-77
2023/01/28 06:53:34;;;;;;;12.10;4.78;;;2.00;99.90;;;;;;5150531;27;20475;-77
2023/01/28 06:55:59;;;;;;;10.38;5.13;;;1.60;99.90;;;;;;5152119;27;20402;-77
2023/01/28 06:58:25;;;;;;;8.25;3.92;;;1.70;99.90;;;;;;5119661;28;20058;-77
2023/01/28 07:00:52;;;;;;;11.40;5.03;;;2.00;99.90;;;;;;5113557;28;20046;-77
2023/01/28 07:03:18;;;;;;;11.90;4.55;;;1.70;99.90;;;;;;5112337;28;20473;-77
2023/01/28 07:05:44;;;;;;;10.70;4.93;;;1.60;99.90;;;;;;5131122;28;20076;-77
2023/01/28 07:08:09;;;;;;;9.95;4.55;;;1.60;99.90;;;;;;5128886;28;20043;-77
2023/01/28 07:10:35;;;;;;;11.15;4.78;;;1.70;99.90;;;;;;5131460;28;20043;-77
2023/01/28 07:13:02;;;;;;;11.32;5.13;;;1.60;99.90;;;;;;5130951;28;20244;-77
2023/01/28 07:15:28;;;;;;;13.63;4.97;;;1.60;99.90;;;;;;5131211;28;20567;-77
2023/01/28 07:17:53;;;;;;;11.13;5.05;;;2.30;99.90;;;;;;5149606;27;20050;-77
2023/01/28 07:20:19;;;;;;;10.82;4.60;;;1.60;99.90;;;;;;5135083;27;20084;-77
2023/01/28 07:22:45;;;;;;;11.00;5.35;;;1.60;99.90;;;;;;5111189;27;20511;-77
2023/01/28 07:25:12;;;;;;;13.15;4.32;;;1.50;99.90;;;;;;5133267;27;20047;-77
2023/01/28 07:27:38;;;;;;;13.25;5.10;;;1.50;99.90;;;;;;5130558;27;20047;-77
2023/01/28 07:30:04;;;;;;;10.90;4.65;;;1.40;99.90;;;;;;5150439;27;20039;-77
2023/01/28 07:32:29;;;;;;;12.93;4.85;;;1.40;99.90;;;;;;5136091;27;20050;-77
2023/01/28 07:34:55;;;;;;;15.80;5.10;;;1.90;99.90;;;;;;5156091;27;20057;-77
2023/01/28 07:37:21;;;;;;;12.65;5.78;;;1.40;99.90;;;;;;5153819;27;20062;-77
2023/01/28 07:39:46;;;;;;;12.68;4.82;;;1.40;99.90;;;;;;5147924;27;20536;-77
2023/01/28 07:42:12;;;;;;;13.40;5.00;;;1.40;99.90;;;;;;5134695;27;20073;-77
2023/01/28 07:44:38;;;;;;;11.75;5.55;;;1.40;99.90;;;;;;5117138;27;20051;-77
2023/01/28 07:47:05;;;;;;;15.13;6.05;;;1.40;99.90;;;;;;5116164;27;20138;-77
2023/01/28 07:49:32;;;;;;;13.25;5.63;;;1.40;99.90;;;;;;5137095;27;20039;-77
2023/01/28 07:51:58;;;;;;;14.50;6.15;;;1.40;99.90;;;;;;5151842;27;20081;-77
2023/01/28 07:54:23;;;;;;;12.40;5.75;;;1.40;99.90;;;;;;5136005;27;20078;-77
2023/01/28 07:56:49;;;;;;;12.93;6.32;;;1.50;99.90;;;;;;5123161;27;20050;-82
2023/01/28 07:59:15;;;;;;;12.27;5.28;;;1.50;99.90;;;;;;5116857;27;20038;-70
2023/01/28 08:01:40;;;;;;;12.05;5.30;;;1.50;99.90;;;;;;5146062;27;20043;-70
2023/01/28 08:04:06;;;;;;;13.98;5.93;;;1.60;99.90;;;;;;5133488;27;20043;-70
2023/01/28 08:06:36;;;;;;;13.07;5.88;;;2.10;99.90;;;;;;5134425;27;20062;-77
2023/01/28 08:09:04;;;;;;;13.02;5.45;;;2.20;99.90;;;;;;5132532;27;20043;-76
2023/01/28 08:11:31;;;;;;;14.80;5.35;;;1.80;99.90;;;;;;5134741;27;20130;-81
2023/01/28 08:13:57;;;;;;;12.20;5.53;;;1.70;99.90;;;;;;5139905;27;20475;-77
2023/01/28 08:16:23;;;;;;;10.85;5.35;;;1.70;99.90;;;;;;5154072;27;20155;-76
2023/01/28 08:18:48;;;;;;;10.63;5.10;;;1.70;99.90;;;;;;5136301;27;20479;-76
2023/01/28 08:21:14;;;;;;;13.27;5.85;;;1.70;99.90;;;;;;5136526;27;20595;-77
2023/01/28 08:23:40;;;;;;;12.98;5.88;;;1.70;99.90;;;;;;5143334;27;20043;-77
2023/01/28 08:26:05;;;;;;;12.73;5.43;;;1.60;99.90;;;;;;5133396;27;20062;-76
2023/01/28 08:28:31;;;;;;;12.30;5.47;;;1.60;99.90;;;;;;5134441;27;20133;-76
2023/01/28 08:30:59;;;;;;;12.07;5.63;;;1.60;99.90;;;;;;5145475;27;20053;-77
2023/01/28 08:33:25;;;;;;;10.90;4.82;;;1.50;99.90;;;;;;5153825;27;20558;-77
2023/01/28 08:35:51;;;;;;;13.13;6.22;;;1.40;99.90;;;;;;5154484;27;20074;-76
2023/01/28 08:38:18;;;;;;;11.82;5.60;;;1.40;99.90;;;;;;5134019;27;20400;-77
2023/01/28 08:40:44;;;;;;;10.25;5.20;;;1.30;99.90;;;;;;5154879;27;20047;-76
2023/01/28 08:43:10;;;;;;;10.35;5.13;;;1.40;99.90;;;;;;5153994;27;20085;-77
2023/01/28 08:45:38;;;;;;;13.00;5.53;;;1.30;99.90;;;;;;5134914;27;20050;-76
2023/01/28 08:48:05;;;;;;;12.02;5.47;;;1.20;99.90;;;;;;5147910;27;20082;-76
2023/01/28 08:50:34;;;;;;;11.65;5.75;;;1.20;99.90;;;;;;5154867;27;20089;-77
2023/01/28 08:53:02;;;;;;;11.25;4.85;;;1.20;99.90;;;;;;5152523;27;20050;-77
2023/01/28 08:55:28;;;;;;;13.02;6.53;;;1.20;99.90;;;;;;5145222;27;20131;-77
2023/01/28 08:57:54;;;;;;;12.70;6.03;;;1.30;99.90;;;;;;5133762;27;20047;-77
2023/01/28 09:00:21;;;;;;;12.75;6.40;;;1.30;99.90;;;;;;5151437;27;20083;-79
2023/01/28 09:02:49;;;;;;;15.00;6.45;;;1.30;99.90;;;;;;5123165;27;20047;-78
2023/01/28 09:05:15;;;;;;;16.65;7.43;;;1.40;99.90;;;;;;5136628;27;20049;-77
2023/01/28 09:07:41;;;;;;;13.32;6.30;;;1.50;99.90;;;;;;5131850;27;20051;-78
2023/01/28 09:10:08;;;;;;;14.80;6.38;;;1.50;99.90;;;;;;5132722;27;20043;-78
2023/01/28 09:12:35;;;;;;;12.88;5.97;;;1.60;99.90;;;;;;5132551;27;20089;-77
2023/01/28 09:15:01;;;;;;;12.95;5.78;;;1.60;99.90;;;;;;5133238;27;20068;-78
2023/01/28 09:17:27;;;;;;;15.02;6.55;;;1.60;99.90;;;;;;5140104;27;20038;-75
2023/01/28 09:19:52;;;;;;;15.20;6.40;;;1.70;99.90;;;;;;5142497;27;20035;-76
2023/01/28 09:22:18;;;;;;;15.73;6.95;;;1.70;99.90;;;;;;5138735;27;20038;-77
2023/01/28 09:24:44;;;;;;;14.20;6.75;;;1.80;99.90;;;;;;5122904;27;20119;-77
2023/01/28 09:27:09;;;;;;;13.27;6.60;;;2.00;99.90;;;;;;5145680;27;20054;-77
2023/01/28 09:29:36;;;;;;;14.10;6.40;;;1.80;99.90;;;;;;5143851;27;20464;-77
2023/01/28 09:32:02;;;;;;;15.70;6.30;;;1.90;99.90;;;;;;5123983;27;20484;-77
2023/01/28 09:34:28;;;;;;;;;;;2.00;99.90;;;;;;5141634;27;20543;-77
2023/01/28 09:36:54;;;;;;;14.52;6.20;;;2.10;99.90;;;;;;5140199;27;20009;-77
2023/01/28 09:39:19;;;;;;;14.82;5.55;;;2.20;99.90;;;;;;5140681;27;20472;-77
2023/01/28 09:42:03;;;;;;;15.52;6.80;;;2.30;99.90;;;;;;5141654;27;20047;-78
2023/01/28 09:44:28;;;;;;;12.75;6.32;;;2.30;99.90;;;;;;5140138;27;20216;-77
2023/01/28 09:47:03;;;;;;;14.43;6.13;;;2.30;99.90;;;;;;5143766;27;20488;-77
2023/01/28 09:49:38;;;;;;;12.57;5.60;;;2.50;99.90;;;;;;5121728;27;20557;-77
2023/01/28 09:52:04;;;;;;;11.45;5.28;;;2.60;99.90;;;;;;5139930;27;20047;-77
2023/01/28 09:54:42;;;;;;;11.88;5.55;;;2.70;99.90;;;;;;5143796;27;20630;-77
2023/01/28 09:57:23;;;;;;;10.20;5.18;;;2.80;99.90;;;;;;5142365;27;20874;-77
2023/01/28 09:59:49;;;;;;;10.55;4.97;;;2.80;99.90;;;;;;5140848;27;20034;-77
2023/01/28 10:02:18;;;;;;;;;;;2.90;99.90;;;;;;5141339;27;20054;-78
2023/01/28 10:04:50;;;;;;;10.77;5.28;;;2.90;99.90;;;;;;5140507;27;20398;-77
2023/01/28 10:07:40;;;;;;;11.93;5.43;;;3.00;99.90;;;;;;5143030;27;20071;-77
2023/01/28 10:10:14;;;;;;;10.85;5.13;;;3.00;99.90;;;;;;5139825;27;20154;-77
2023/01/28 10:12:54;;;;;;;11.82;5.25;;;3.10;99.90;;;;;;5140452;27;20042;-77
2023/01/28 10:15:46;;;;;;;13.02;5.55;;;3.10;99.90;;;;;;5124680;27;20061;-77
2023/01/28 10:18:12;;;;;;;13.80;5.82;;;3.20;99.90;;;;;;5140433;27;20551;-77
2023/01/28 10:20:47;;;;;;;10.80;4.95;;;3.20;99.90;;;;;;5118795;27;20093;-77
2023/01/28 10:23:26;;;;;;;13.43;5.63;;;3.30;99.90;;;;;;5129007;27;20563;-80
2023/01/28 10:25:55;;;;;;;12.18;5.22;;;3.20;99.90;;;;;;5117351;27;20058;-80
2023/01/28 10:28:24;;;;;;;12.95;6.05;;;3.40;99.90;;;;;;5113908;27;20117;-81
2023/01/28 10:30:50;;;;;;;11.65;5.40;;;3.50;99.90;;;;;;5131384;27;20047;-82
2023/01/28 10:33:19;;;;;;;;;;;3.70;99.90;;;;;;5131014;27;20142;-81
2023/01/28 10:35:46;;;;;;;11.60;5.03;;;3.80;99.90;;;;;;5131279;27;19923;-81
2023/01/28 10:38:20;;;;;;;10.50;4.90;;;3.90;99.90;;;;;;5131340;27;20151;-80
2023/01/28 10:40:49;;;;;;;14.05;4.70;;;4.00;99.90;;;;;;5151916;27;20046;-84
2023/01/28 10:43:24;;;;;;;12.05;5.40;;;4.30;99.90;;;;;;5151349;27;20091;-82
2023/01/28 10:46:08;;;;;;;12.90;6.03;;;4.30;99.90;;;;;;5151116;27;20038;-81
2023/01/28 10:48:43;;;;;;;11.98;5.60;;;4.50;99.90;;;;;;5150781;27;20604;-77
2023/01/28 10:51:08;;;;;;;10.95;4.85;;;4.70;99.90;;;;;;5138053;27;20051;-80
2023/01/28 10:53:39;;;;;;;11.60;5.93;;;4.70;99.90;;;;;;5131105;27;20035;-78
2023/01/28 10:56:13;;;;;;;10.48;5.00;;;4.70;99.90;;;;;;5139364;27;20050;-79
2023/01/28 10:58:59;;;;;;;11.48;4.90;;;4.70;99.90;;;;;;5140774;27;20088;-78
2023/01/28 11:01:38;;;;;;;9.93;4.85;;;4.70;99.90;;;;;;5141611;27;20058;-85
2023/01/28 11:04:03;;;;;;;10.98;5.68;;;4.70;99.90;;;;;;5122534;27;20122;-85
2023/01/28 11:06:29;;;;;;;10.35;4.78;;;4.70;99.90;;;;;;5117016;27;20567;-85
2023/01/28 11:08:55;;;;;;;10.07;5.00;;;5.00;99.90;;;;;;5115436;27;20142;-85
2023/01/28 11:11:25;;;;;;;9.68;4.55;;;6.10;99.90;;;;;;5120793;27;20473;-85
2023/01/28 11:13:53;;;;;;;9.65;4.57;;;6.90;99.90;;;;;;5137664;27;20062;-85
2023/01/28 11:16:19;;;;;;;11.02;5.45;;;7.90;99.90;;;;;;5131958;27;20055;-79
2023/01/28 11:18:52;;;;;;;;;;;8.50;99.90;;;;;;5149851;27;20051;-77
2023/01/28 11:21:28;;;;;;;9.70;4.82;;;8.90;99.90;;;;;;5151823;27;19926;-73
2023/01/28 11:23:59;;;;;;;9.73;4.88;;;9.50;99.90;;;;;;5143522;27;20074;-72
2023/01/28 11:26:31;;;;;;;8.88;3.97;;;9.90;99.90;;;;;;5143868;27;20035;-80
2023/01/28 11:28:57;;;;;;;9.90;4.80;;;10.40;99.90;;;;;;5125562;27;20411;-79
2023/01/28 11:31:23;;;;;;;;;;;10.80;99.90;;;;;;5145378;27;20047;-80
2023/01/28 11:33:56;;;;;;;12.27;4.93;;;11.30;96.00;;;;;;5131904;27;19926;-80
2023/01/28 11:36:29;;;;;;;8.23;4.45;;;11.50;99.90;;;;;;5143141;27;20051;-80
2023/01/28 11:38:56;;;;;;;9.18;4.72;;;11.60;99.90;;;;;;5143279;27;20052;-80
2023/01/28 11:41:29;;;;;;;8.38;4.47;;;11.70;99.90;;;;;;5146655;27;20051;-79
2023/01/28 11:43:57;;;;;;;7.72;3.90;;;12.10;99.90;;;;;;5155459;27;20074;-77
2023/01/28 11:46:38;;;;;;;8.57;3.90;;;11.90;99.90;;;;;;5148263;27;20662;-77
2023/01/28 11:49:15;;;;;;;8.05;4.45;;;11.20;99.90;;;;;;5144331;27;20042;-76
2023/01/28 11:52:14;;;;;;;7.00;3.83;;;10.90;99.90;;;;;;5144570;27;20065;-76
2023/01/28 11:55:16;;;;;;;9.55;4.40;;;10.40;99.90;;;;;;5148087;27;20091;-77
2023/01/28 11:58:16;;;;;;;8.95;3.95;;;10.10;99.90;;;;;;5142327;27;20983;-76
2023/01/28 12:01:02;;;;;;;9.80;3.92;;;9.60;99.90;;;;;;5141987;27;20035;-76
2023/01/28 12:03:48;;;;;;;10.15;3.88;;;9.00;99.90;;;;;;5124480;27;20079;-76
2023/01/28 12:06:33;;;;;;;8.70;4.28;;;8.40;99.90;;;;;;5141847;27;20057;-75
2023/01/28 12:09:10;;;;;;;9.63;4.75;;;8.90;99.90;;;;;;5121483;27;20061;-76
2023/01/28 12:12:13;;;;;;;8.13;4.28;;;9.90;99.90;;;;;;5141599;27;20043;-76
2023/01/28 12:14:48;;;;;;;9.15;4.50;;;11.20;99.10;;;;;;5117110;27;20043;-77
2023/01/28 12:17:40;;;;;;;8.85;4.53;;;13.00;99.90;;;;;;5124557;27;20368;-76
2023/01/28 12:20:27;;;;;;;8.27;3.95;;;14.40;91.10;;;;;;5147522;27;20039;-77
2023/01/28 12:23:04;;;;;;;8.23;4.25;;;15.30;83.50;;;;;;5144608;27;20553;-77
2023/01/28 12:25:55;;;;;;;8.55;3.95;;;14.30;96.80;;;;;;5122763;27;20059;-76
2023/01/28 12:28:30;;;;;;;7.07;3.78;;;13.10;94.50;;;;;;5115215;27;20498;-76
2023/01/28 12:31:20;;;;;;;8.77;4.32;;;11.80;95.30;;;;;;5133724;27;20055;-76
2023/01/28 12:33:56;;;;;;;9.48;4.03;;;10.80;99.90;;;;;;5132721;27;20089;-75
2023/01/28 12:36:56;;;;;;;8.60;3.80;;;9.80;99.90;;;;;;5133498;27;20047;-80
2023/01/28 12:39:44;;;;;;;11.55;4.25;;;9.00;99.90;;;;;;5132219;27;20507;-75
2023/01/28 12:42:26;;;;;;;9.65;4.03;;;8.30;99.90;;;;;;5138211;27;20050;-75
2023/01/28 12:45:01;;;;;;;9.25;3.90;;;7.90;99.90;;;;;;5154307;27;20054;-75
2023/01/28 12:47:34;;;;;;;9.60;4.28;;;7.50;99.90;;;;;;5132546;27;20047;-75
2023/01/28 12:50:28;;;;;;;8.40;4.22;;;7.20;99.90;;;;;;5133420;27;20422;-75
2023/01/28 12:53:02;;;;;;;7.18;3.40;;;7.00;99.90;;;;;;5115282;27;20046;-75
2023/01/28 12:55:42;;;;;;;8.48;3.75;;;6.80;99.90;;;;;;5131794;27;20046;-75
2023/01/28 12:58:18;;;;;;;9.13;4.20;;;6.70;99.90;;;;;;5154114;27;20047;-75
2023/01/28 13:00:50;;;;;;;9.00;3.72;;;6.50;99.90;;;;;;5153352;27;20149;-75
2023/01/28 13:03:23;;;;;;;7.53;3.42;;;6.50;99.90;;;;;;5134969;27;20053;-75
2023/01/28 13:05:58;;;;;;;10.13;4.13;;;6.50;99.90;;;;;;5153566;27;20038;-75
2023/01/28 13:08:27;;;;;;;9.63;3.88;;;6.50;99.90;;;;;;5150553;27;20093;-75
2023/01/28 13:10:55;;;;;;;8.45;3.42;;;6.30;99.90;;;;;;5135042;27;20046;-75
2023/01/28 13:13:27;;;;;;;9.93;4.07;;;6.20;99.90;;;;;;5153327;27;20543;-75
2023/01/28 13:15:53;;;;;;;9.25;4.28;;;6.30;99.90;;;;;;5153540;27;20047;-75
2023/01/28 13:18:46;;;;;;;7.93;3.47;;;7.20;99.90;;;;;;5153122;27;20039;-76
2023/01/28 13:21:24;;;;;;;8.27;3.65;;;9.50;99.90;;;;;;5153688;27;20151;-76
2023/01/28 13:24:03;;;;;;;9.27;4.05;;;11.50;95.40;;;;;;5150597;27;20046;-76
2023/01/28 13:26:51;;;;;;;9.80;3.63;;;12.80;99.90;;;;;;5152885;27;20047;-76
2023/01/28 13:29:37;;;;;;;10.00;3.80;;;14.40;79.40;;;;;;5139306;27;20043;-77
2023/01/28 13:32:28;;;;;;;8.65;3.88;;;15.20;71.00;;;;;;5131868;27;20059;-76
2023/01/28 13:35:00;;;;;;;7.80;3.90;;;16.00;64.40;;;;;;5153265;27;20088;-76
2023/01/28 13:37:33;;;;;;;7.78;4.00;;;16.50;76.20;;;;;;5151398;27;20129;-77